KINS Airport (Creech Afb) Information

FAA: INS - ICAO: KINS

KINS Airport Location

State Nevada
County Clark
City Indian Springs
KINS Airport is 1 miles north of Indian Springs, NV.
Latitude 36-35-10.8376N
Longitude 115-40-38.5340W
Elevation 3,134ft

KINS Airport METARs

METAR KINS 072055Z AUTO 01007KT 10SM OVC042 11/M01 A3010 RMK AO2 SLP187 T01061015 56009 $
Altimeter 30.10"
Temperature 10.6°C (51.1°F)
Wind 10° at 7KT
Clouds overcast at 4,200ft
Visibility 10.0mi
Time observed: 2022-12-07T20:55:00Z

KINS Airport Details

Status Operational
Activation N/A
Ownership Military - Air Force
Usage Private
Chart LAS VEGAS
ATC on-site Yes
Beacon schedule sunset-sunrise
Beacon color clear green

KINS Airport Contacts

Owner USAF
Owner address NELLIS AFB, LAS VEGAS, NV 89110
Owner phone N/A
Manager JOHN WALZL
Manager address P.O. BOX 206, EUREKA, NV 89316
Manager phone 775-237-6100

KINS Airport (Creech Afb) Radio Frequencies

KINS (Airport) Radio Frequencies

UNICOM N/A
Common traffic advisory frequency (CTAF) N/A